AirNav   TITAN Aviation Fuels
 
 1470 users online  

02WA Cawleys South Prairie Airport
South Prairie, Washington, USA

GOING TO SOUTH PRAIRIE?


FAA INFORMATION EFFECTIVE 02 DECEMBER 2021

Location

FAA Identifier: 02WA
Lat/Long: 47-09-08.3660N 122-05-38.4100W
47-09.139433N 122-05.640167W
47.1523239,-122.0940028
(estimated)
Elevation: 690 ft. / 210 m (estimated)
Variation: 20E (1985)
From city: 1 mile NE of SOUTH PRAIRIE, WA
Time zone: UTC -8 (UTC -7 during Daylight Saving Time)
Zip code: 98321

Airport Operations

Airport use: Private use. Permission required prior to landing
Activation date: 10/1967
Control tower: no
ARTCC: SEATTLE CENTER
FSS: SEATTLE FLIGHT SERVICE STATION
Attendance: CONTINUOUS
Pattern altitude: 1490 ft. MSL
Wind indicator: yes
Segmented circle: no

Airport Communications

WX AWOS-3 at PLU (8 nm W): 128.575 (253-848-2748)
WX ASOS at TCM (16 nm W): PHONE 253-982-3434
WX ASOS at SEA (20 nm NW): PHONE 206-214-2592

Nearby radio navigation aids

VOR radial/distance  VOR name  Freq  Var
SEAr134/19.1SEATTLE VORTAC116.8019E
OLMr053/34.8OLYMPIA VORTAC113.4019E

Airport Services

Airframe service: NONE
Powerplant service: NONE

Runway Information

Runway 16/34

Dimensions: 2650 x 50 ft. / 808 x 15 m
Surface: turf
RUNWAY 16  RUNWAY 34
Traffic pattern: leftleft

Airport Ownership and Management from official FAA records

Ownership: Privately-owned
Owner: CLINTON J CAWLEY
PO BOX 868
BUCKLEY, WA 98321-0868
Phone 253-380-3559
Manager: CLINTON J CAWLEY
PO BOX 868
BUCKLEY, WA 98321-0868
Phone 253-380-3559

Airport Operational Statistics

Aircraft based on the field: 30
Single engine airplanes: 30
    

Additional Remarks

AEROBATICS 1500' AGL EAST OF ARPT.
FOR CD CTC SEATTLE APCH AT 206-214-4794.

Instrument Procedures

There are no published instrument procedures at 02WA.

Some nearby airports with instrument procedures:

KPLU - Pierce County Airport - Thun Field (8 nm W)
S50 - Auburn Municipal Airport (12 nm NW)
KTCM - McChord Field Airport (Joint Base Lewis-McChord) (16 nm W)
KSEA - Seattle-Tacoma International Airport (20 nm NW)
KGRF - Gray Army Airfield (Joint Base Lewis-McChord) (20 nm W)
 
Loc | Ops | Rwys | IFR | FBO | Links
Com | Nav | Svcs | Stats | Notes
Area around 02WA (Cawleys South Prairie Airport)
 
Road maps at: MapQuest Bing Google
 
Aerial photo
WARNING: Photo may not be current or correct
Aerial photo of 02WA (Cawleys South Prairie Airport)
Do you have a better or more recent aerial photo of Cawleys South Prairie Airport that you would like to share? If so, please send us your photo.

 
Sectional chart

 
Airport distance calculator
Flying to Cawleys South Prairie Airport? Find the distance to fly.

From to 02WA

Sunrise and sunset
Times for 06-Dec-2021
 Local
(UTC-8)
 Zulu
(UTC)
Morning civil twilight07:0615:06
Sunrise07:4115:41
Sunset16:1800:18
Evening civil twilight16:5300:53

Current date and time
Zulu (UTC)  06-Dec-2021 17:42:35
Local (UTC-8)  06-Dec-2021 09:42:35
 
METAR
KPLU 
8nm W 
061715Z AUTO 00000KT 1SM -DZ BKN003 OVC008 04/04 A3007 RMK AO2
KTCM 
15nm W 
061644Z AUTO 00000KT 2SM BR FEW006 OVC021 03/03 A3007 RMK AO2 CIG 003 RWY34 SLP189 $
KGRF 
20nm W 
061637Z 00000KT 1 7/8SM -DZ BR OVC005 04/02 A3006 RMK AO2A TWR VIS 1 SLP186 $
TAF
KTCM 
15nm W 
061130Z 0611/0711 VRB06KT 9000 -SHRA BKN040 OVC060 610809 QNH3028INS BECMG 0615/0616 18009KT 6000 -SHRA BR OVC010 610309 QNH2994INS BECMG 0623/0624 18009KT 8000 BR VCSH OVC007 QNH2994INS BECMG 0708/0709 18009KT 4800 BR OVC005 QNH2998INS TX06/0622Z TN02/0614Z
KGRF 
20nm W 
061300Z 0613/0719 VRB03KT 9999 BKN020 OVC030 620452 620805 QNH3001INS TEMPO 0615/0618 4800 -RA BR BKN005 OVC020 BECMG 0618/0619 18006KT 9000 -RA OVC010 620805 QNH2992INS BECMG 0700/0701 17005KT 9999 NSW OVC010 QNH2992INS BECMG 0706/0707 VRB03KT 4800 -RA BR OVC010 620602 QNH2993INS BECMG 0717/0718 VRB03KT 9999 NSW OVC010 QNH2996INS TX07/0622Z TN03/0613Z
NOTAMs
Click for the latest NOTAMs
NOTAMs are issued by the DoD/FAA and will open in a separate window not controlled by AirNav.

 

 
 

Would you like to see your business listed on this page?

 If your business provides an interesting product or service to pilots, flight crews, aircraft, or users of the Cawleys South Prairie Airport, you should consider listing it here.  To start the listing process, click on the button below
 
Add a business
 

Other Pages about Cawleys South Prairie Airport

Update a link
 
Copyright © AirNav, LLC. All rights reserved. Privacy Policy  Contact